sensor_id;sensor_type;location;lat;lon;timestamp;temperature;humidity
2202;DHT22;1107;48.654;9.250;2022-12-18T00:01:58;-9.00;1.00
2202;DHT22;1107;48.654;9.250;2022-12-18T00:04:25;-9.00;1.00
2202;DHT22;1107;48.654;9.250;2022-12-18T00:06:52;-8.90;1.00
2202;DHT22;1107;48.654;9.250;2022-12-18T00:09:19;-8.90;1.00
2202;DHT22;1107;48.654;9.250;2022-12-18T00:11:46;-8.90;1.00
2202;DHT22;1107;48.654;9.250;2022-12-18T00:14:13;-8.90;1.00
2202;DHT22;1107;48.654;9.250;2022-12-18T00:16:42;-8.90;2.90
2202;DHT22;1107;48.654;9.250;2022-12-18T00:19:09;-8.80;1.00
2202;DHT22;1107;48.654;9.250;2022-12-18T00:21:36;-8.90;1.00
2202;DHT22;1107;48.654;9.250;2022-12-18T00:24:03;-8.90;1.00
2202;DHT22;1107;48.654;9.250;2022-12-18T00:26:31;-8.90;99.90
2202;DHT22;1107;48.654;9.250;2022-12-18T00:28:58;-9.00;1.00
2202;DHT22;1107;48.654;9.250;2022-12-18T00:31:25;-9.00;98.90
2202;DHT22;1107;48.654;9.250;2022-12-18T00:33:54;-9.00;32.90
2202;DHT22;1107;48.654;9.250;2022-12-18T00:36:22;-9.00;1.00
2202;DHT22;1107;48.654;9.250;2022-12-18T00:38:49;-9.00;99.90
2202;DHT22;1107;48.654;9.250;2022-12-18T00:41:17;-9.00;1.00
2202;DHT22;1107;48.654;9.250;2022-12-18T00:44:04;-9.10;1.00
2202;DHT22;1107;48.654;9.250;2022-12-18T00:46:30;-9.10;1.00
2202;DHT22;1107;48.654;9.250;2022-12-18T00:48:58;-9.10;1.00
2202;DHT22;1107;48.654;9.250;2022-12-18T00:51:24;-9.30;1.00
2202;DHT22;1107;48.654;9.250;2022-12-18T00:53:51;-9.40;1.00
2202;DHT22;1107;48.654;9.250;2022-12-18T00:56:18;-9.40;1.00
2202;DHT22;1107;48.654;9.250;2022-12-18T00:58:45;-9.50;1.00
2202;DHT22;1107;48.654;9.250;2022-12-18T01:01:12;-9.50;99.90
2202;DHT22;1107;48.654;9.250;2022-12-18T01:03:39;-9.50;1.00
2202;DHT22;1107;48.654;9.250;2022-12-18T01:06:07;-9.50;1.00
2202;DHT22;1107;48.654;9.250;2022-12-18T01:08:34;-9.50;1.00
2202;DHT22;1107;48.654;9.250;2022-12-18T01:11:06;-9.50;99.90
2202;DHT22;1107;48.654;9.250;2022-12-18T01:13:33;-9.40;1.00
2202;DHT22;1107;48.654;9.250;2022-12-18T01:15:59;-9.30;1.00
2202;DHT22;1107;48.654;9.250;2022-12-18T01:18:26;-9.20;1.00
2202;DHT22;1107;48.654;9.250;2022-12-18T01:20:53;-9.10;1.00
2202;DHT22;1107;48.654;9.250;2022-12-18T01:23:21;-9.20;99.90
2202;DHT22;1107;48.654;9.250;2022-12-18T01:25:48;-9.10;1.00
2202;DHT22;1107;48.654;9.250;2022-12-18T01:28:14;-9.00;99.90
2202;DHT22;1107;48.654;9.250;2022-12-18T01:30:41;-9.00;99.90
2202;DHT22;1107;48.654;9.250;2022-12-18T01:33:08;-9.10;99.90
2202;DHT22;1107;48.654;9.250;2022-12-18T01:35:39;-9.10;99.90
2202;DHT22;1107;48.654;9.250;2022-12-18T01:38:06;-9.10;99.90
2202;DHT22;1107;48.654;9.250;2022-12-18T01:40:34;-9.10;97.70
2202;DHT22;1107;48.654;9.250;2022-12-18T01:43:01;-9.00;74.50
2202;DHT22;1107;48.654;9.250;2022-12-18T01:45:28;-9.00;1.00
2202;DHT22;1107;48.654;9.250;2022-12-18T01:47:56;-9.00;1.00
2202;DHT22;1107;48.654;9.250;2022-12-18T01:50:23;-9.00;1.00
2202;DHT22;1107;48.654;9.250;2022-12-18T01:52:52;-9.00;1.00
2202;DHT22;1107;48.654;9.250;2022-12-18T01:55:20;-9.00;1.00
2202;DHT22;1107;48.654;9.250;2022-12-18T01:57:50;-8.90;21.60
2202;DHT22;1107;48.654;9.250;2022-12-18T02:00:19;-8.90;81.60
2202;DHT22;1107;48.654;9.250;2022-12-18T02:02:46;-8.80;1.00
2202;DHT22;1107;48.654;9.250;2022-12-18T02:05:13;-8.80;99.90
2202;DHT22;1107;48.654;9.250;2022-12-18T02:07:42;-8.70;1.00
2202;DHT22;1107;48.654;9.250;2022-12-18T02:10:12;-8.80;1.00
2202;DHT22;1107;48.654;9.250;2022-12-18T02:12:42;-8.90;1.00
2202;DHT22;1107;48.654;9.250;2022-12-18T02:15:14;-9.10;1.00
2202;DHT22;1107;48.654;9.250;2022-12-18T02:17:43;-9.20;1.00
2202;DHT22;1107;48.654;9.250;2022-12-18T02:20:12;-9.20;99.90
2202;DHT22;1107;48.654;9.250;2022-12-18T02:22:43;-9.20;99.90
2202;DHT22;1107;48.654;9.250;2022-12-18T02:25:19;-9.20;99.90
2202;DHT22;1107;48.654;9.250;2022-12-18T02:27:53;-9.20;16.30
2202;DHT22;1107;48.654;9.250;2022-12-18T02:30:21;-9.20;99.90
2202;DHT22;1107;48.654;9.250;2022-12-18T02:32:48;-9.20;99.90
2202;DHT22;1107;48.654;9.250;2022-12-18T02:35:17;-9.10;9.10
2202;DHT22;1107;48.654;9.250;2022-12-18T02:37:45;-9.10;1.00
2202;DHT22;1107;48.654;9.250;2022-12-18T02:40:14;-9.10;1.00
2202;DHT22;1107;48.654;9.250;2022-12-18T02:42:41;-9.00;1.00
2202;DHT22;1107;48.654;9.250;2022-12-18T02:45:10;-9.10;1.00
2202;DHT22;1107;48.654;9.250;2022-12-18T02:47:37;-9.10;99.90
2202;DHT22;1107;48.654;9.250;2022-12-18T02:50:06;-9.20;99.90
2202;DHT22;1107;48.654;9.250;2022-12-18T02:52:35;-9.20;1.00
2202;DHT22;1107;48.654;9.250;2022-12-18T02:55:08;-9.20;1.00
2202;DHT22;1107;48.654;9.250;2022-12-18T02:57:40;-9.30;2.10
2202;DHT22;1107;48.654;9.250;2022-12-18T03:00:12;-9.40;99.90
2202;DHT22;1107;48.654;9.250;2022-12-18T03:02:41;-9.40;1.00
2202;DHT22;1107;48.654;9.250;2022-12-18T03:05:11;-9.60;1.00
2202;DHT22;1107;48.654;9.250;2022-12-18T03:07:40;-9.60;1.00
2202;DHT22;1107;48.654;9.250;2022-12-18T03:10:09;-9.60;1.00
2202;DHT22;1107;48.654;9.250;2022-12-18T03:12:39;-9.80;1.00
2202;DHT22;1107;48.654;9.250;2022-12-18T03:15:07;-9.80;1.00
2202;DHT22;1107;48.654;9.250;2022-12-18T03:17:36;-9.90;1.00
2202;DHT22;1107;48.654;9.250;2022-12-18T03:20:05;-9.90;47.00
2202;DHT22;1107;48.654;9.250;2022-12-18T03:22:34;-10.00;42.20
2202;DHT22;1107;48.654;9.250;2022-12-18T03:25:03;-10.10;99.90
2202;DHT22;1107;48.654;9.250;2022-12-18T03:27:30;-9.90;99.90
2202;DHT22;1107;48.654;9.250;2022-12-18T03:30:00;-10.00;1.00
2202;DHT22;1107;48.654;9.250;2022-12-18T03:32:33;-10.00;99.90
2202;DHT22;1107;48.654;9.250;2022-12-18T03:35:04;-10.00;99.90
2202;DHT22;1107;48.654;9.250;2022-12-18T03:37:31;-10.00;99.90
2202;DHT22;1107;48.654;9.250;2022-12-18T03:39:58;-9.90;99.90
2202;DHT22;1107;48.654;9.250;2022-12-18T03:42:25;-9.90;1.00
2202;DHT22;1107;48.654;9.250;2022-12-18T03:44:57;-9.80;1.00
2202;DHT22;1107;48.654;9.250;2022-12-18T03:47:25;-9.80;1.00
2202;DHT22;1107;48.654;9.250;2022-12-18T03:49:56;-9.90;1.00
2202;DHT22;1107;48.654;9.250;2022-12-18T03:52:25;-10.10;1.00
2202;DHT22;1107;48.654;9.250;2022-12-18T03:54:53;-10.00;1.00
2202;DHT22;1107;48.654;9.250;2022-12-18T03:57:20;-9.90;1.00
2202;DHT22;1107;48.654;9.250;2022-12-18T03:59:49;-10.00;1.00
2202;DHT22;1107;48.654;9.250;2022-12-18T04:02:16;-10.00;1.00
2202;DHT22;1107;48.654;9.250;2022-12-18T04:04:43;-10.10;1.00
2202;DHT22;1107;48.654;9.250;2022-12-18T04:07:11;-10.20;1.00
2202;DHT22;1107;48.654;9.250;2022-12-18T04:09:40;-10.20;99.90
2202;DHT22;1107;48.654;9.250;2022-12-18T04:12:08;-10.30;99.90
2202;DHT22;1107;48.654;9.250;2022-12-18T04:14:34;-10.30;1.00
2202;DHT22;1107;48.654;9.250;2022-12-18T04:17:01;-10.30;99.90
2202;DHT22;1107;48.654;9.250;2022-12-18T04:19:28;-10.30;99.90
2202;DHT22;1107;48.654;9.250;2022-12-18T04:21:55;-10.30;1.00
2202;DHT22;1107;48.654;9.250;2022-12-18T04:24:22;-10.40;1.00
2202;DHT22;1107;48.654;9.250;2022-12-18T04:26:50;-10.40;1.00
2202;DHT22;1107;48.654;9.250;2022-12-18T04:29:16;-10.60;1.00
2202;DHT22;1107;48.654;9.250;2022-12-18T04:31:43;-10.70;1.00
2202;DHT22;1107;48.654;9.250;2022-12-18T04:34:10;-10.80;1.00
2202;DHT22;1107;48.654;9.250;2022-12-18T04:36:37;-10.80;99.90
2202;DHT22;1107;48.654;9.250;2022-12-18T04:39:03;-10.90;99.90
2202;DHT22;1107;48.654;9.250;2022-12-18T04:41:30;-10.90;1.00
2202;DHT22;1107;48.654;9.250;2022-12-18T04:43:58;-10.80;1.00
2202;DHT22;1107;48.654;9.250;2022-12-18T04:46:25;-10.80;1.00
2202;DHT22;1107;48.654;9.250;2022-12-18T04:48:52;-10.90;99.90
2202;DHT22;1107;48.654;9.250;2022-12-18T04:51:18;-10.90;1.00
2202;DHT22;1107;48.654;9.250;2022-12-18T04:53:45;-10.90;54.80
2202;DHT22;1107;48.654;9.250;2022-12-18T04:56:12;-10.80;99.90
2202;DHT22;1107;48.654;9.250;2022-12-18T04:58:40;-10.80;99.90
2202;DHT22;1107;48.654;9.250;2022-12-18T05:01:09;-10.70;50.00
2202;DHT22;1107;48.654;9.250;2022-12-18T05:03:36;-10.60;1.00
2202;DHT22;1107;48.654;9.250;2022-12-18T05:06:04;-10.70;1.00
2202;DHT22;1107;48.654;9.250;2022-12-18T05:08:31;-10.60;1.00
2202;DHT22;1107;48.654;9.250;2022-12-18T05:10:58;-10.70;99.90
2202;DHT22;1107;48.654;9.250;2022-12-18T05:13:25;-10.80;1.00
2202;DHT22;1107;48.654;9.250;2022-12-18T05:15:52;-10.90;1.00
2202;DHT22;1107;48.654;9.250;2022-12-18T05:18:20;-10.90;1.00
2202;DHT22;1107;48.654;9.250;2022-12-18T05:20:47;-10.90;1.00
2202;DHT22;1107;48.654;9.250;2022-12-18T05:23:14;-10.90;99.90
2202;DHT22;1107;48.654;9.250;2022-12-18T05:25:40;-10.90;1.00
2202;DHT22;1107;48.654;9.250;2022-12-18T05:28:07;-11.00;99.90
2202;DHT22;1107;48.654;9.250;2022-12-18T05:30:34;-11.00;99.90
2202;DHT22;1107;48.654;9.250;2022-12-18T05:33:00;-11.00;1.00
2202;DHT22;1107;48.654;9.250;2022-12-18T05:35:28;-10.90;1.00
2202;DHT22;1107;48.654;9.250;2022-12-18T05:37:55;-10.90;99.90
2202;DHT22;1107;48.654;9.250;2022-12-18T05:40:22;-10.90;1.00
2202;DHT22;1107;48.654;9.250;2022-12-18T05:42:49;-10.90;1.00
2202;DHT22;1107;48.654;9.250;2022-12-18T05:45:15;-10.90;1.00
2202;DHT22;1107;48.654;9.250;2022-12-18T05:47:42;-10.80;99.90
2202;DHT22;1107;48.654;9.250;2022-12-18T05:50:09;-10.70;99.90
2202;DHT22;1107;48.654;9.250;2022-12-18T05:52:37;-10.70;99.90
2202;DHT22;1107;48.654;9.250;2022-12-18T05:55:04;-10.70;99.90
2202;DHT22;1107;48.654;9.250;2022-12-18T05:57:31;-10.60;1.00
2202;DHT22;1107;48.654;9.250;2022-12-18T05:59:58;-10.50;1.00
2202;DHT22;1107;48.654;9.250;2022-12-18T06:02:24;-10.40;1.00
2202;DHT22;1107;48.654;9.250;2022-12-18T06:04:51;-10.40;1.00
2202;DHT22;1107;48.654;9.250;2022-12-18T06:07:18;-10.30;1.00
2202;DHT22;1107;48.654;9.250;2022-12-18T06:09:46;-10.20;1.00
2202;DHT22;1107;48.654;9.250;2022-12-18T06:12:12;-10.20;99.90
2202;DHT22;1107;48.654;9.250;2022-12-18T06:14:39;-10.20;99.90
2202;DHT22;1107;48.654;9.250;2022-12-18T06:17:06;-10.20;1.00
2202;DHT22;1107;48.654;9.250;2022-12-18T06:19:33;-10.30;1.00
2202;DHT22;1107;48.654;9.250;2022-12-18T06:21:59;-10.30;99.90
2202;DHT22;1107;48.654;9.250;2022-12-18T06:24:26;-10.30;1.00
2202;DHT22;1107;48.654;9.250;2022-12-18T06:26:54;-10.40;1.00
2202;DHT22;1107;48.654;9.250;2022-12-18T06:29:21;-10.50;99.90
2202;DHT22;1107;48.654;9.250;2022-12-18T06:31:48;-10.50;1.00
2202;DHT22;1107;48.654;9.250;2022-12-18T06:34:15;-10.40;1.00
2202;DHT22;1107;48.654;9.250;2022-12-18T06:36:41;-10.40;99.90
2202;DHT22;1107;48.654;9.250;2022-12-18T06:39:08;-10.40;99.90
2202;DHT22;1107;48.654;9.250;2022-12-18T06:41:35;-10.40;99.90
2202;DHT22;1107;48.654;9.250;2022-12-18T06:44:03;-10.30;1.00
2202;DHT22;1107;48.654;9.250;2022-12-18T06:46:31;-10.40;1.00
2202;DHT22;1107;48.654;9.250;2022-12-18T06:48:58;-10.50;1.00
2202;DHT22;1107;48.654;9.250;2022-12-18T06:51:25;-10.60;1.00
2202;DHT22;1107;48.654;9.250;2022-12-18T06:53:52;-10.60;1.00
2202;DHT22;1107;48.654;9.250;2022-12-18T06:56:18;-10.60;99.90
2202;DHT22;1107;48.654;9.250;2022-12-18T06:58:45;-10.60;1.00
2202;DHT22;1107;48.654;9.250;2022-12-18T07:01:13;-10.50;1.00
2202;DHT22;1107;48.654;9.250;2022-12-18T07:03:40;-10.40;99.90
2202;DHT22;1107;48.654;9.250;2022-12-18T07:06:12;-10.20;1.00
2202;DHT22;1107;48.654;9.250;2022-12-18T07:08:39;-10.10;99.90
2202;DHT22;1107;48.654;9.250;2022-12-18T07:11:06;-9.90;99.90
2202;DHT22;1107;48.654;9.250;2022-12-18T07:13:32;-9.80;1.00
2202;DHT22;1107;48.654;9.250;2022-12-18T07:16:06;-9.70;1.00
2202;DHT22;1107;48.654;9.250;2022-12-18T07:18:34;-9.60;1.00
2202;DHT22;1107;48.654;9.250;2022-12-18T07:21:04;-9.50;99.90
2202;DHT22;1107;48.654;9.250;2022-12-18T07:23:32;-9.40;1.00
2202;DHT22;1107;48.654;9.250;2022-12-18T07:26:00;-9.40;1.00
2202;DHT22;1107;48.654;9.250;2022-12-18T07:28:27;-9.40;1.00
2202;DHT22;1107;48.654;9.250;2022-12-18T07:30:53;-9.30;1.00
2202;DHT22;1107;48.654;9.250;2022-12-18T07:33:20;-9.20;20.20
2202;DHT22;1107;48.654;9.250;2022-12-18T07:35:48;-9.20;99.90
2202;DHT22;1107;48.654;9.250;2022-12-18T07:38:15;-9.10;99.90
2202;DHT22;1107;48.654;9.250;2022-12-18T07:40:42;-8.90;99.90
2202;DHT22;1107;48.654;9.250;2022-12-18T07:43:08;-8.70;1.00
2202;DHT22;1107;48.654;9.250;2022-12-18T07:45:35;-8.50;1.00
2202;DHT22;1107;48.654;9.250;2022-12-18T07:48:02;-8.40;1.00
2202;DHT22;1107;48.654;9.250;2022-12-18T07:50:29;-8.30;1.00
2202;DHT22;1107;48.654;9.250;2022-12-18T07:52:57;-7.90;1.00
2202;DHT22;1107;48.654;9.250;2022-12-18T07:55:28;-7.60;1.00
2202;DHT22;1107;48.654;9.250;2022-12-18T07:57:55;-7.40;1.00
2202;DHT22;1107;48.654;9.250;2022-12-18T08:00:22;-7.10;1.00
2202;DHT22;1107;48.654;9.250;2022-12-18T08:02:49;-6.70;99.90
2202;DHT22;1107;48.654;9.250;2022-12-18T08:05:15;-6.40;99.90
2202;DHT22;1107;48.654;9.250;2022-12-18T08:07:42;-6.10;76.80
2202;DHT22;1107;48.654;9.250;2022-12-18T08:10:10;-5.90;1.00
2202;DHT22;1107;48.654;9.250;2022-12-18T08:12:37;-5.50;1.00
2202;DHT22;1107;48.654;9.250;2022-12-18T08:15:04;-5.40;1.00
2202;DHT22;1107;48.654;9.250;2022-12-18T08:17:31;-5.40;17.40
2202;DHT22;1107;48.654;9.250;2022-12-18T08:19:58;-5.40;99.90
2202;DHT22;1107;48.654;9.250;2022-12-18T08:22:25;-5.10;1.00
2202;DHT22;1107;48.654;9.250;2022-12-18T08:24:51;-4.70;1.00
2202;DHT22;1107;48.654;9.250;2022-12-18T08:27:19;-4.40;99.90
2202;DHT22;1107;48.654;9.250;2022-12-18T08:29:46;-4.30;99.90
2202;DHT22;1107;48.654;9.250;2022-12-18T08:32:13;-4.20;99.90
2202;DHT22;1107;48.654;9.250;2022-12-18T08:34:40;-3.60;23.70
2202;DHT22;1107;48.654;9.250;2022-12-18T08:37:06;-3.00;1.00
2202;DHT22;1107;48.654;9.250;2022-12-18T08:39:33;-2.50;1.00
2202;DHT22;1107;48.654;9.250;2022-12-18T08:42:00;-2.80;1.00
2202;DHT22;1107;48.654;9.250;2022-12-18T08:44:46;-2.50;1.00
2202;DHT22;1107;48.654;9.250;2022-12-18T08:47:13;-2.10;1.00
2202;DHT22;1107;48.654;9.250;2022-12-18T08:49:40;-2.40;1.00
2202;DHT22;1107;48.654;9.250;2022-12-18T08:52:07;-2.40;1.00
2202;DHT22;1107;48.654;9.250;2022-12-18T08:54:34;-2.90;1.00
2202;DHT22;1107;48.654;9.250;2022-12-18T08:57:01;-3.40;1.00
2202;DHT22;1107;48.654;9.250;2022-12-18T08:59:28;-3.60;1.00
2202;DHT22;1107;48.654;9.250;2022-12-18T09:01:56;-3.10;1.00
2202;DHT22;1107;48.654;9.250;2022-12-18T09:04:23;-3.00;1.00
2202;DHT22;1107;48.654;9.250;2022-12-18T09:06:50;-2.90;1.00
2202;DHT22;1107;48.654;9.250;2022-12-18T09:09:17;-2.70;1.00
2202;DHT22;1107;48.654;9.250;2022-12-18T09:11:45;-2.40;1.00
2202;DHT22;1107;48.654;9.250;2022-12-18T09:14:11;-2.10;1.00
2202;DHT22;1107;48.654;9.250;2022-12-18T09:16:38;-2.20;1.00
2202;DHT22;1107;48.654;9.250;2022-12-18T09:19:07;-2.50;1.00
2202;DHT22;1107;48.654;9.250;2022-12-18T09:21:34;-2.50;1.00
2202;DHT22;1107;48.654;9.250;2022-12-18T09:24:02;-2.50;1.00
2202;DHT22;1107;48.654;9.250;2022-12-18T09:26:29;-2.20;1.00
2202;DHT22;1107;48.654;9.250;2022-12-18T09:28:56;-2.20;1.00
2202;DHT22;1107;48.654;9.250;2022-12-18T09:31:23;-1.80;1.00
2202;DHT22;1107;48.654;9.250;2022-12-18T09:33:50;-0.90;1.00
2202;DHT22;1107;48.654;9.250;2022-12-18T09:36:18;-0.60;1.00
2202;DHT22;1107;48.654;9.250;2022-12-18T09:38:45;-0.50;1.00
2202;DHT22;1107;48.654;9.250;2022-12-18T09:41:39;0.00;1.00
2202;DHT22;1107;48.654;9.250;2022-12-18T09:44:14;0.40;99.90
2202;DHT22;1107;48.654;9.250;2022-12-18T09:46:45;1.30;99.90
2202;DHT22;1107;48.654;9.250;2022-12-18T09:49:15;2.10;99.90
2202;DHT22;1107;48.654;9.250;2022-12-18T09:51:46;2.60;99.90
2202;DHT22;1107;48.654;9.250;2022-12-18T09:54:16;2.40;99.90
2202;DHT22;1107;48.654;9.250;2022-12-18T09:56:45;2.70;99.90
2202;DHT22;1107;48.654;9.250;2022-12-18T09:59:18;2.90;99.90
2202;DHT22;1107;48.654;9.250;2022-12-18T10:01:46;3.70;99.90
2202;DHT22;1107;48.654;9.250;2022-12-18T10:04:13;3.20;99.90
2202;DHT22;1107;48.654;9.250;2022-12-18T10:06:46;2.90;99.90
2202;DHT22;1107;48.654;9.250;2022-12-18T10:09:24;3.30;99.90
2202;DHT22;1107;48.654;9.250;2022-12-18T10:11:55;3.90;99.90
2202;DHT22;1107;48.654;9.250;2022-12-18T10:14:29;4.40;99.90
2202;DHT22;1107;48.654;9.250;2022-12-18T10:17:03;5.00;99.90
2202;DHT22;1107;48.654;9.250;2022-12-18T10:19:38;6.20;99.90
2202;DHT22;1107;48.654;9.250;2022-12-18T10:22:11;7.10;99.90
2202;DHT22;1107;48.654;9.250;2022-12-18T10:24:45;7.40;99.90
2202;DHT22;1107;48.654;9.250;2022-12-18T10:27:16;6.90;99.90
2202;DHT22;1107;48.654;9.250;2022-12-18T10:29:44;6.50;99.90
2202;DHT22;1107;48.654;9.250;2022-12-18T10:32:15;6.20;99.90
2202;DHT22;1107;48.654;9.250;2022-12-18T10:34:45;6.30;99.90
2202;DHT22;1107;48.654;9.250;2022-12-18T10:37:16;6.70;99.90
2202;DHT22;1107;48.654;9.250;2022-12-18T10:39:44;7.50;99.90
2202;DHT22;1107;48.654;9.250;2022-12-18T10:42:11;7.70;99.90
2202;DHT22;1107;48.654;9.250;2022-12-18T10:44:42;8.10;99.90
2202;DHT22;1107;48.654;9.250;2022-12-18T10:47:11;8.10;99.90
2202;DHT22;1107;48.654;9.250;2022-12-18T10:49:39;8.70;99.90
2202;DHT22;1107;48.654;9.250;2022-12-18T10:52:12;8.50;99.90
2202;DHT22;1107;48.654;9.250;2022-12-18T10:54:45;8.20;99.90
2202;DHT22;1107;48.654;9.250;2022-12-18T10:57:16;7.80;99.90
2202;DHT22;1107;48.654;9.250;2022-12-18T10:59:50;7.60;99.90
2202;DHT22;1107;48.654;9.250;2022-12-18T11:02:24;7.40;99.90
2202;DHT22;1107;48.654;9.250;2022-12-18T11:04:51;7.60;99.90
2202;DHT22;1107;48.654;9.250;2022-12-18T11:07:18;8.00;99.90
2202;DHT22;1107;48.654;9.250;2022-12-18T11:09:58;8.40;99.90
2202;DHT22;1107;48.654;9.250;2022-12-18T11:12:26;8.30;99.90
2202;DHT22;1107;48.654;9.250;2022-12-18T11:14:54;9.00;99.90
2202;DHT22;1107;48.654;9.250;2022-12-18T11:17:25;9.00;99.90
2202;DHT22;1107;48.654;9.250;2022-12-18T11:19:54;9.50;99.90
2202;DHT22;1107;48.654;9.250;2022-12-18T11:22:23;9.50;99.90
2202;DHT22;1107;48.654;9.250;2022-12-18T11:24:54;9.60;99.90
2202;DHT22;1107;48.654;9.250;2022-12-18T11:27:21;9.80;99.90
2202;DHT22;1107;48.654;9.250;2022-12-18T11:29:49;10.60;99.90
2202;DHT22;1107;48.654;9.250;2022-12-18T11:32:21;11.00;99.90
2202;DHT22;1107;48.654;9.250;2022-12-18T11:34:50;11.60;99.90
2202;DHT22;1107;48.654;9.250;2022-12-18T11:37:18;11.90;99.90
2202;DHT22;1107;48.654;9.250;2022-12-18T11:39:46;12.00;99.90
2202;DHT22;1107;48.654;9.250;2022-12-18T11:42:18;12.40;99.90
2202;DHT22;1107;48.654;9.250;2022-12-18T11:44:46;11.90;99.90
2202;DHT22;1107;48.654;9.250;2022-12-18T11:47:23;11.70;99.90
2202;DHT22;1107;48.654;9.250;2022-12-18T11:49:52;11.50;99.90
2202;DHT22;1107;48.654;9.250;2022-12-18T11:52:20;11.30;99.90
2202;DHT22;1107;48.654;9.250;2022-12-18T11:54:50;11.10;99.90
2202;DHT22;1107;48.654;9.250;2022-12-18T11:57:20;11.30;99.90
2202;DHT22;1107;48.654;9.250;2022-12-18T11:59:53;11.00;99.90
2202;DHT22;1107;48.654;9.250;2022-12-18T12:02:27;11.10;99.90
2202;DHT22;1107;48.654;9.250;2022-12-18T12:07:42;11.30;99.90
2202;DHT22;1107;48.654;9.250;2022-12-18T12:10:18;10.80;99.90
2202;DHT22;1107;48.654;9.250;2022-12-18T12:12:55;10.50;99.90
2202;DHT22;1107;48.654;9.250;2022-12-18T12:15:28;10.10;98.80
2202;DHT22;1107;48.654;9.250;2022-12-18T12:17:59;9.90;98.90
2202;DHT22;1107;48.654;9.250;2022-12-18T12:20:31;9.70;98.40
2202;DHT22;1107;48.654;9.250;2022-12-18T12:23:01;9.20;96.10
2202;DHT22;1107;48.654;9.250;2022-12-18T12:25:31;8.70;96.40
2202;DHT22;1107;48.654;9.250;2022-12-18T12:28:05;8.10;95.30
2202;DHT22;1107;48.654;9.250;2022-12-18T12:30:39;7.70;95.80
2202;DHT22;1107;48.654;9.250;2022-12-18T12:33:12;7.50;95.90
2202;DHT22;1107;48.654;9.250;2022-12-18T12:35:44;7.10;95.60
2202;DHT22;1107;48.654;9.250;2022-12-18T12:38:13;6.50;94.80
2202;DHT22;1107;48.654;9.250;2022-12-18T12:40:42;6.20;99.90
2202;DHT22;1107;48.654;9.250;2022-12-18T12:43:15;5.60;94.40
2202;DHT22;1107;48.654;9.250;2022-12-18T12:45:42;5.40;96.10
2202;DHT22;1107;48.654;9.250;2022-12-18T12:48:15;5.10;98.00
2202;DHT22;1107;48.654;9.250;2022-12-18T12:50:42;5.10;99.90
2202;DHT22;1107;48.654;9.250;2022-12-18T12:53:18;5.00;99.90
2202;DHT22;1107;48.654;9.250;2022-12-18T12:55:47;5.00;99.90
2202;DHT22;1107;48.654;9.250;2022-12-18T12:58:16;4.70;99.90
2202;DHT22;1107;48.654;9.250;2022-12-18T13:00:46;4.50;99.90
2202;DHT22;1107;48.654;9.250;2022-12-18T13:03:19;4.50;99.90
2202;DHT22;1107;48.654;9.250;2022-12-18T13:05:49;4.40;99.90
2202;DHT22;1107;48.654;9.250;2022-12-18T13:08:22;4.50;99.90
2202;DHT22;1107;48.654;9.250;2022-12-18T13:10:49;4.50;99.90
2202;DHT22;1107;48.654;9.250;2022-12-18T13:13:48;4.50;99.90
2202;DHT22;1107;48.654;9.250;2022-12-18T13:16:18;4.40;99.90
2202;DHT22;1107;48.654;9.250;2022-12-18T13:18:49;4.40;99.90
2202;DHT22;1107;48.654;9.250;2022-12-18T13:21:21;4.60;99.90
2202;DHT22;1107;48.654;9.250;2022-12-18T13:23:50;4.70;99.90
2202;DHT22;1107;48.654;9.250;2022-12-18T13:26:31;4.50;99.90
2202;DHT22;1107;48.654;9.250;2022-12-18T13:29:01;4.30;99.90
2202;DHT22;1107;48.654;9.250;2022-12-18T13:34:23;3.90;99.90
2202;DHT22;1107;48.654;9.250;2022-12-18T13:36:51;3.80;99.90
2202;DHT22;1107;48.654;9.250;2022-12-18T13:39:22;3.70;99.90
2202;DHT22;1107;48.654;9.250;2022-12-18T13:41:50;3.70;99.90
2202;DHT22;1107;48.654;9.250;2022-12-18T13:44:25;3.70;99.90
2202;DHT22;1107;48.654;9.250;2022-12-18T13:46:52;3.70;99.90
2202;DHT22;1107;48.654;9.250;2022-12-18T13:49:23;3.40;99.90
2202;DHT22;1107;48.654;9.250;2022-12-18T13:51:52;3.10;99.90
2202;DHT22;1107;48.654;9.250;2022-12-18T13:54:22;3.10;99.90
2202;DHT22;1107;48.654;9.250;2022-12-18T13:56:50;3.30;99.90
2202;DHT22;1107;48.654;9.250;2022-12-18T13:59:19;3.40;99.90
2202;DHT22;1107;48.654;9.250;2022-12-18T14:01:51;3.40;99.90
2202;DHT22;1107;48.654;9.250;2022-12-18T14:04:20;3.50;99.90
2202;DHT22;1107;48.654;9.250;2022-12-18T14:06:50;3.40;99.90
2202;DHT22;1107;48.654;9.250;2022-12-18T14:09:21;3.20;99.90
2202;DHT22;1107;48.654;9.250;2022-12-18T14:11:51;3.10;99.90
2202;DHT22;1107;48.654;9.250;2022-12-18T14:14:41;2.90;99.90
2202;DHT22;1107;48.654;9.250;2022-12-18T14:17:10;2.70;99.90
2202;DHT22;1107;48.654;9.250;2022-12-18T14:19:42;2.50;99.90
2202;DHT22;1107;48.654;9.250;2022-12-18T14:22:15;2.20;99.90
2202;DHT22;1107;48.654;9.250;2022-12-18T14:24:43;1.90;99.90
2202;DHT22;1107;48.654;9.250;2022-12-18T14:27:19;1.70;99.90
2202;DHT22;1107;48.654;9.250;2022-12-18T14:29:47;1.30;1.00
2202;DHT22;1107;48.654;9.250;2022-12-18T14:32:15;1.10;1.00
2202;DHT22;1107;48.654;9.250;2022-12-18T14:34:44;0.80;1.00
2202;DHT22;1107;48.654;9.250;2022-12-18T14:37:13;0.80;1.00
2202;DHT22;1107;48.654;9.250;2022-12-18T14:39:40;0.60;1.00
2202;DHT22;1107;48.654;9.250;2022-12-18T14:42:18;0.40;1.00
2202;DHT22;1107;48.654;9.250;2022-12-18T14:44:45;0.30;1.00
2202;DHT22;1107;48.654;9.250;2022-12-18T14:47:14;0.20;1.00
2202;DHT22;1107;48.654;9.250;2022-12-18T14:49:41;-0.10;1.00
2202;DHT22;1107;48.654;9.250;2022-12-18T14:52:15;-0.20;1.00
2202;DHT22;1107;48.654;9.250;2022-12-18T14:54:45;-0.30;1.00
2202;DHT22;1107;48.654;9.250;2022-12-18T14:57:15;-0.50;1.00
2202;DHT22;1107;48.654;9.250;2022-12-18T14:59:45;-0.50;18.20
2202;DHT22;1107;48.654;9.250;2022-12-18T15:02:15;-0.60;99.90
2202;DHT22;1107;48.654;9.250;2022-12-18T15:04:46;-0.80;99.90
2202;DHT22;1107;48.654;9.250;2022-12-18T15:07:13;-0.90;99.90
2202;DHT22;1107;48.654;9.250;2022-12-18T15:09:42;-1.10;99.90
2202;DHT22;1107;48.654;9.250;2022-12-18T15:12:21;-1.20;1.00
2202;DHT22;1107;48.654;9.250;2022-12-18T15:14:49;-1.30;1.00
2202;DHT22;1107;48.654;9.250;2022-12-18T15:17:16;-1.40;1.00
2202;DHT22;1107;48.654;9.250;2022-12-18T15:19:46;-1.60;1.00
2202;DHT22;1107;48.654;9.250;2022-12-18T15:22:22;-1.70;1.00
2202;DHT22;1107;48.654;9.250;2022-12-18T15:24:50;-1.80;1.00
2202;DHT22;1107;48.654;9.250;2022-12-18T15:27:26;-1.90;1.00
2202;DHT22;1107;48.654;9.250;2022-12-18T15:30:00;-1.90;96.80
2202;DHT22;1107;48.654;9.250;2022-12-18T15:32:26;-2.10;99.90
2202;DHT22;1107;48.654;9.250;2022-12-18T15:35:02;-2.20;99.90
2202;DHT22;1107;48.654;9.250;2022-12-18T15:37:29;-2.20;1.00
2202;DHT22;1107;48.654;9.250;2022-12-18T15:39:56;-2.30;1.00
2202;DHT22;1107;48.654;9.250;2022-12-18T15:42:23;-2.40;1.00
2202;DHT22;1107;48.654;9.250;2022-12-18T15:45:10;-2.40;1.00
2202;DHT22;1107;48.654;9.250;2022-12-18T15:47:37;-2.50;1.00
2202;DHT22;1107;48.654;9.250;2022-12-18T15:50:06;-2.50;1.00
2202;DHT22;1107;48.654;9.250;2022-12-18T15:52:35;-2.60;99.90
2202;DHT22;1107;48.654;9.250;2022-12-18T15:55:05;-2.60;99.90
2202;DHT22;1107;48.654;9.250;2022-12-18T15:57:53;-2.60;99.90
2202;DHT22;1107;48.654;9.250;2022-12-18T16:00:19;-2.60;99.90
2202;DHT22;1107;48.654;9.250;2022-12-18T16:02:46;-2.70;99.90
2202;DHT22;1107;48.654;9.250;2022-12-18T16:05:15;-2.70;99.90
2202;DHT22;1107;48.654;9.250;2022-12-18T16:07:42;-2.80;1.00
2202;DHT22;1107;48.654;9.250;2022-12-18T16:10:09;-2.80;1.00
2202;DHT22;1107;48.654;9.250;2022-12-18T16:12:36;-2.90;99.90
2202;DHT22;1107;48.654;9.250;2022-12-18T16:15:03;-2.90;99.90
2202;DHT22;1107;48.654;9.250;2022-12-18T16:17:30;-2.90;1.00
2202;DHT22;1107;48.654;9.250;2022-12-18T16:19:57;-2.90;1.00
2202;DHT22;1107;48.654;9.250;2022-12-18T16:22:26;-2.90;99.90
2202;DHT22;1107;48.654;9.250;2022-12-18T16:24:54;-2.90;99.90
2202;DHT22;1107;48.654;9.250;2022-12-18T16:27:21;-2.90;1.00